Time;durP1;ratioP1;P1;durP2;ratioP2;P2;SDS_P1;SDS_P2;PMS_P1;PMS_P2;Temp;Humidity;BMP_temperature;BMP_pressure;BME280_temperature;BME280_humidity;BME280_pressure;Samples;Min_cycle;Max_cycle;Signal;HPM_P1;HPM_P2
2021/10/29 00:00:24;;;;;;;64.33;44.63;;;6.50;1.00;8.00;100397.00;;;;4994240;28;20518;-76
2021/10/29 00:03:02;;;;;;;54.47;42.70;;;6.50;1.00;8.00;100460.00;;;;4998643;28;20546;-74
2021/10/29 00:05:31;;;;;;;68.13;45.20;;;6.50;1.00;7.90;100469.00;;;;4994998;28;20482;-77
2021/10/29 00:08:00;;;;;;;68.23;45.80;;;6.40;1.00;7.90;100374.00;;;;4990948;28;20502;-72
2021/10/29 00:10:29;;;;;;;59.37;41.93;;;6.30;1.00;7.90;100430.00;;;;4988372;28;20469;-77
2021/10/29 00:12:59;;;;;;;80.97;50.87;;;6.40;1.00;7.90;100450.00;;;;5005028;28;20561;-74
2021/10/29 00:15:28;;;;;;;61.07;42.83;;;6.30;1.00;7.80;100451.00;;;;4992554;28;20474;-73
2021/10/29 00:17:57;;;;;;;58.90;43.40;;;6.50;1.00;7.80;100441.00;;;;5003811;28;20477;-74
2021/10/29 00:20:25;;;;;;;59.93;42.60;;;6.30;1.00;7.80;100448.00;;;;5007951;28;20496;-76
2021/10/29 00:22:54;;;;;;;60.97;42.10;;;6.40;1.00;7.90;100456.00;;;;4999722;28;20458;-76
2021/10/29 00:25:22;;;;;;;83.13;49.77;;;6.40;1.00;7.80;100433.00;;;;4998587;28;20685;-76
2021/10/29 00:27:50;;;;;;;63.13;45.47;;;6.30;1.00;7.80;100450.00;;;;5010137;28;20454;-73
2021/10/29 00:30:20;;;;;;;65.73;44.63;;;6.30;1.00;7.80;100440.00;;;;4991334;28;20483;-76
2021/10/29 00:32:48;;;;;;;68.23;46.90;;;6.50;1.00;7.80;100431.00;;;;5006561;28;20509;-74
2021/10/29 00:35:17;;;;;;;70.23;45.80;;;6.30;1.00;7.80;100448.00;;;;5007489;28;20450;-77
2021/10/29 00:37:45;;;;;;;56.90;42.13;;;6.30;1.00;7.80;100444.00;;;;5004253;28;20461;-77
2021/10/29 00:40:15;;;;;;;60.87;43.13;;;6.30;1.00;7.80;100453.00;;;;5003264;28;20777;-74
2021/10/29 00:42:44;;;;;;;74.80;47.33;;;6.30;1.00;7.80;100455.00;;;;5003438;28;20454;-75
2021/10/29 00:45:12;;;;;;;78.43;49.60;;;6.30;1.00;7.80;100435.00;;;;4997320;28;20470;-74
2021/10/29 00:47:42;;;;;;;58.87;42.63;;;6.30;1.00;7.80;100448.00;;;;4998286;28;20457;-73
2021/10/29 00:50:12;;;;;;;57.77;42.70;;;6.40;1.00;7.80;100451.00;;;;4997273;28;20472;-77
2021/10/29 00:52:41;;;;;;;59.33;41.40;;;6.30;1.00;7.70;100446.00;;;;5001049;28;20989;-73
2021/10/29 00:55:11;;;;;;;74.10;46.87;;;6.20;1.00;7.70;100438.00;;;;4993974;28;20454;-73
2021/10/29 00:57:40;;;;;;;67.53;45.77;;;6.20;1.00;7.70;100461.00;;;;5014835;28;20548;-73
2021/10/29 01:00:11;;;;;;;60.90;43.17;;;6.20;1.00;7.70;100418.00;;;;5005412;28;20446;-73
2021/10/29 01:02:41;;;;;;;100.60;55.60;;;6.20;1.00;7.70;100443.00;;;;5011835;28;20449;-74
2021/10/29 01:05:11;;;;;;;57.33;41.60;;;6.20;1.00;7.60;100461.00;;;;4989717;28;20493;-73
2021/10/29 01:07:39;;;;;;;64.83;45.00;;;6.20;1.00;7.60;100453.00;;;;4997987;28;20457;-76
2021/10/29 01:10:09;;;;;;;100.13;54.83;;;6.10;1.00;7.60;100437.00;;;;4995146;28;20469;-76
2021/10/29 01:12:38;;;;;;;67.83;45.80;;;6.10;1.00;7.60;100418.00;;;;4998468;28;20512;-77
2021/10/29 01:15:09;;;;;;;73.73;47.10;;;6.10;1.00;7.40;100433.00;;;;4994852;28;20964;-75
2021/10/29 01:17:37;;;;;;;61.97;42.77;;;6.10;1.00;7.60;100437.00;;;;4995974;28;20513;-76
2021/10/29 01:20:09;;;;;;;60.63;43.40;;;6.00;1.00;7.60;100427.00;;;;4999119;28;21291;-73
2021/10/29 01:22:39;;;;;;;97.40;54.67;;;6.00;1.00;7.50;100433.00;;;;4982137;28;21034;-76
2021/10/29 01:25:11;;;;;;;74.93;49.30;;;6.00;1.00;7.60;100443.00;;;;4989685;28;20496;-76
2021/10/29 01:27:41;;;;;;;71.37;45.90;;;6.10;1.00;7.60;100428.00;;;;4982247;28;20553;-77
2021/10/29 01:30:11;;;;;;;72.00;45.43;;;6.10;1.00;7.50;100431.00;;;;4980446;28;20816;-74
2021/10/29 01:32:41;;;;;;;70.30;45.63;;;6.20;1.00;7.80;100430.00;;;;4989206;28;20454;-76
2021/10/29 01:35:12;;;;;;;62.30;44.73;;;6.30;1.00;7.90;100421.00;;;;4994213;28;20820;-76
2021/10/29 01:37:44;;;;;;;56.87;42.13;;;6.40;1.00;8.00;100407.00;;;;4990910;28;20447;-76
2021/10/29 01:40:15;;;;;;;56.40;39.87;;;6.50;1.00;8.20;100436.00;;;;4998020;28;21580;-77
2021/10/29 01:42:44;;;;;;;56.97;40.87;;;6.60;1.00;8.30;100432.00;;;;4993818;28;20466;-76
2021/10/29 01:45:12;;;;;;;56.57;39.43;;;6.80;1.00;8.40;100411.00;;;;4996989;28;20489;-76
2021/10/29 01:47:40;;;;;;;55.20;41.73;;;6.90;1.00;8.50;100427.00;;;;4992499;28;20450;-75
2021/10/29 01:50:10;;;;;;;56.23;39.10;;;7.00;1.00;8.60;100433.00;;;;4996288;28;20458;-75
2021/10/29 01:52:38;;;;;;;54.67;40.60;;;7.10;1.00;8.70;100415.00;;;;4997601;28;20458;-74
2021/10/29 01:55:09;;;;;;;56.30;40.40;;;7.10;1.00;8.70;100431.00;;;;4987798;28;20466;-75
2021/10/29 01:57:38;;;;;;;58.33;42.47;;;7.10;1.00;8.70;100423.00;;;;4988532;28;20797;-76
2021/10/29 02:00:08;;;;;;;72.87;47.40;;;7.10;1.00;8.80;100414.00;;;;4981598;28;20469;-73
2021/10/29 02:02:41;;;;;;;74.93;49.07;;;7.30;1.00;8.80;100419.00;;;;4988261;28;20458;-77
2021/10/29 02:05:11;;;;;;;76.10;47.87;;;7.30;1.00;8.90;100378.00;;;;4980830;28;20479;-74
2021/10/29 02:07:40;;;;;;;70.10;46.87;;;7.40;1.00;9.00;100421.00;;;;4990791;28;20541;-75
2021/10/29 02:10:10;;;;;;;65.10;46.70;;;7.40;1.00;9.00;100351.00;;;;4992524;28;20462;-77
2021/10/29 02:12:39;;;;;;;73.20;47.47;;;7.50;1.00;9.00;100414.00;;;;4992843;28;21266;-77
2021/10/29 02:15:09;;;;;;;70.77;47.43;;;7.60;1.00;9.10;100431.00;;;;4993565;28;20464;-76
2021/10/29 02:17:37;;;;;;;70.77;46.90;;;7.60;1.00;9.10;100421.00;;;;5003576;28;20485;-74
2021/10/29 02:20:07;;;;;;;73.10;48.47;;;7.60;1.00;9.10;100410.00;;;;4995331;28;20458;-73
2021/10/29 02:22:36;;;;;;;68.63;46.27;;;7.70;1.00;9.10;100393.00;;;;5002283;28;20466;-73
2021/10/29 02:25:07;;;;;;;71.30;46.77;;;7.70;1.00;9.20;100417.00;;;;4998896;28;20489;-74
2021/10/29 02:27:36;;;;;;;64.90;45.37;;;7.70;1.00;9.20;100412.00;;;;4995137;28;20469;-78
2021/10/29 02:30:06;;;;;;;65.67;46.97;;;7.80;1.00;9.20;100400.00;;;;4993504;28;20948;-74
2021/10/29 02:32:35;;;;;;;67.07;46.03;;;7.80;1.00;9.30;100394.00;;;;5004461;28;20464;-76
2021/10/29 02:35:04;;;;;;;72.60;46.80;;;7.80;1.00;9.30;100389.00;;;;4996118;28;20461;-73
2021/10/29 02:37:33;;;;;;;70.90;45.40;;;7.90;1.00;9.30;100395.00;;;;5018643;28;20443;-72
2021/10/29 02:40:01;;;;;;;66.50;45.73;;;7.90;1.00;9.40;100394.00;;;;5016756;28;20458;-73
2021/10/29 02:42:29;;;;;;;67.13;44.97;;;7.90;1.00;9.40;100397.00;;;;5018339;28;20553;-75
2021/10/29 02:44:59;;;;;;;60.50;43.30;;;8.10;1.00;9.50;100388.00;;;;5019342;28;20465;-73
2021/10/29 02:47:27;;;;;;;60.03;42.73;;;8.00;1.00;9.50;100397.00;;;;5000430;28;20470;-74
2021/10/29 02:49:55;;;;;;;60.77;44.77;;;8.00;1.00;9.50;100393.00;;;;4983369;28;20981;-76
2021/10/29 02:52:24;;;;;;;64.70;44.60;;;8.10;1.00;9.60;100402.00;;;;5000120;28;20466;-73
2021/10/29 02:54:52;;;;;;;65.30;44.87;;;8.10;1.00;9.60;100397.00;;;;4993455;28;20996;-75
2021/10/29 02:57:20;;;;;;;63.83;44.20;;;8.20;1.00;9.60;100386.00;;;;4995888;28;20488;-75
2021/10/29 02:59:49;;;;;;;65.77;43.77;;;8.20;1.00;9.70;100385.00;;;;4997265;28;20462;-74
2021/10/29 03:02:18;;;;;;;66.90;44.13;;;8.30;1.00;9.70;100381.00;;;;4982824;28;20489;-76
2021/10/29 03:04:47;;;;;;;63.57;42.53;;;8.30;1.00;9.70;100381.00;;;;4998195;28;21490;-76
2021/10/29 03:07:15;;;;;;;66.00;44.17;;;8.30;1.00;9.70;100389.00;;;;4995670;28;20478;-75
2021/10/29 03:09:44;;;;;;;66.67;45.33;;;8.30;1.00;9.70;100376.00;;;;4988307;28;20451;-72
2021/10/29 03:12:13;;;;;;;63.50;44.23;;;8.50;1.00;9.80;100398.00;;;;4985465;28;20466;-76
2021/10/29 03:14:41;;;;;;;63.57;41.87;;;8.40;1.00;9.80;100388.00;;;;4992933;28;20951;-77
2021/10/29 03:17:10;;;;;;;67.87;43.80;;;8.50;1.00;9.80;100405.00;;;;4995381;28;20475;-73
2021/10/29 03:19:39;;;;;;;58.97;41.37;;;8.50;1.00;9.90;100400.00;;;;4988018;28;20481;-76
2021/10/29 03:22:08;;;;;;;67.00;43.10;;;8.50;1.00;9.90;100410.00;;;;4985312;28;20457;-76
2021/10/29 03:24:36;;;;;;;58.93;40.50;;;8.50;1.00;9.80;100402.00;;;;4979101;28;20453;-75
2021/10/29 03:27:05;;;;;;;63.77;42.50;;;8.50;1.00;9.90;100431.00;;;;4995124;28;21101;-73
2021/10/29 03:29:33;;;;;;;55.70;39.47;;;8.60;1.00;9.90;100410.00;;;;4978063;28;20566;-75
2021/10/29 03:32:02;;;;;;;56.37;41.00;;;8.60;1.00;10.00;100388.00;;;;4993926;28;20464;-76
2021/10/29 03:34:30;;;;;;;57.30;40.07;;;8.60;1.00;10.00;100410.00;;;;4992044;28;20456;-74
2021/10/29 03:37:01;;;;;;;60.47;40.50;;;8.60;1.00;10.00;100410.00;;;;4978495;28;21046;-75
2021/10/29 03:39:30;;;;;;;59.43;39.93;;;8.70;1.00;9.90;100394.00;;;;4992123;28;20537;-75
2021/10/29 03:42:01;;;;;;;61.13;41.00;;;8.80;1.00;9.90;100396.00;;;;4975448;28;20455;-76
2021/10/29 03:44:39;;;;;;;57.07;39.57;;;8.60;1.00;9.90;100351.00;;;;4983443;28;20906;-75
2021/10/29 03:47:08;;;;;;;55.90;38.13;;;8.60;1.00;9.90;100371.00;;;;4994987;28;20496;-74
2021/10/29 03:49:42;;;;;;;55.63;39.70;;;8.50;1.00;9.80;100386.00;;;;4997244;28;20528;-73
2021/10/29 03:52:18;;;;;;;54.93;38.67;;;8.50;1.00;9.80;100388.00;;;;4997457;28;20469;-76
2021/10/29 03:54:51;;;;;;;55.87;38.27;;;8.50;1.00;9.80;100383.00;;;;4996363;28;20471;-73
2021/10/29 03:57:24;;;;;;;53.90;38.90;;;8.50;1.00;9.80;100375.00;;;;4986330;28;20580;-77
2021/10/29 03:59:54;;;;;;;57.87;36.93;;;8.40;1.00;9.80;100379.00;;;;4997456;28;20548;-75
2021/10/29 04:02:24;;;;;;;54.17;40.00;;;8.40;1.00;9.80;100366.00;;;;4991205;28;20927;-77
2021/10/29 04:04:53;;;;;;;51.27;39.00;;;8.40;1.00;9.80;100376.00;;;;4979655;28;20474;-74
2021/10/29 04:07:23;;;;;;;57.17;39.93;;;8.40;1.00;9.80;100377.00;;;;4986249;28;20492;-76
2021/10/29 04:09:51;;;;;;;54.70;38.93;;;8.40;1.00;9.80;100359.00;;;;4980128;28;20482;-76
2021/10/29 04:12:20;;;;;;;51.73;37.10;;;8.40;1.00;9.80;100375.00;;;;4990337;28;20520;-76
2021/10/29 04:14:49;;;;;;;51.40;37.83;;;8.40;1.00;9.90;100359.00;;;;4993145;28;20466;-75
2021/10/29 04:17:18;;;;;;;57.70;38.90;;;8.40;1.00;9.80;100365.00;;;;4988274;28;20478;-76
2021/10/29 04:19:46;;;;;;;49.17;35.93;;;8.40;1.00;9.80;100381.00;;;;4988843;28;20462;-75
2021/10/29 04:22:14;;;;;;;47.77;36.57;;;8.50;1.00;9.90;100367.00;;;;4990526;28;21017;-77
2021/10/29 04:24:44;;;;;;;48.67;37.00;;;8.50;1.00;9.90;100356.00;;;;4990646;28;20458;-74
2021/10/29 04:27:20;;;;;;;46.43;36.20;;;8.50;1.00;9.90;100350.00;;;;4989931;28;20483;-76
2021/10/29 04:29:50;;;;;;;48.67;35.37;;;8.40;1.00;9.90;100365.00;;;;4998206;28;20465;-76
2021/10/29 04:32:18;;;;;;;52.40;37.00;;;8.40;1.00;10.00;100367.00;;;;4975893;28;20937;-77
2021/10/29 04:34:47;;;;;;;47.60;35.87;;;8.50;1.00;10.00;100348.00;;;;5005137;28;20469;-73
2021/10/29 04:37:15;;;;;;;49.60;34.27;;;8.50;1.00;10.00;100369.00;;;;5001705;28;20531;-73
2021/10/29 04:39:46;;;;;;;45.53;36.10;;;8.50;1.00;10.00;100346.00;;;;5003735;28;20492;-75
2021/10/29 04:42:16;;;;;;;47.10;35.40;;;8.50;1.00;10.00;100373.00;;;;5012315;28;20460;-73
2021/10/29 04:44:45;;;;;;;47.93;35.17;;;8.50;1.00;10.00;100359.00;;;;5001783;28;20450;-72
2021/10/29 04:47:13;;;;;;;45.23;34.10;;;8.50;1.00;10.00;100351.00;;;;5009617;28;20532;-76
2021/10/29 04:49:41;;;;;;;48.80;36.13;;;8.50;1.00;10.00;100369.00;;;;5001433;28;20930;-76
2021/10/29 04:52:10;;;;;;;44.60;33.97;;;8.50;1.00;10.10;100359.00;;;;5011372;28;20470;-75
2021/10/29 04:54:38;;;;;;;44.63;33.77;;;8.50;1.00;10.10;100335.00;;;;5007105;28;20454;-74
2021/10/29 04:57:08;;;;;;;51.97;36.57;;;8.60;1.00;10.10;100353.00;;;;4995822;28;20482;-74
2021/10/29 04:59:36;;;;;;;51.27;37.37;;;8.60;1.00;10.20;100309.00;;;;4989838;28;20465;-76
2021/10/29 05:02:04;;;;;;;49.27;34.70;;;8.60;1.00;10.20;100343.00;;;;5002669;28;20445;-74
2021/10/29 05:04:33;;;;;;;48.90;35.27;;;8.60;1.00;10.20;100341.00;;;;5002888;28;20497;-75
2021/10/29 05:07:02;;;;;;;53.37;38.20;;;8.60;1.00;10.30;100317.00;;;;5000988;28;20499;-74
2021/10/29 05:09:30;;;;;;;53.33;37.13;;;8.70;1.00;10.20;100347.00;;;;5000103;28;20948;-75
2021/10/29 05:11:58;;;;;;;53.73;37.87;;;8.70;1.00;10.30;100344.00;;;;4987304;28;20501;-77
2021/10/29 05:14:28;;;;;;;58.17;37.70;;;8.80;1.00;10.30;100346.00;;;;4987205;28;20448;-74
2021/10/29 05:16:56;;;;;;;52.60;37.53;;;8.80;1.00;10.30;100350.00;;;;5001379;28;20482;-75
2021/10/29 05:19:25;;;;;;;53.53;37.67;;;8.80;1.00;10.40;100349.00;;;;4999747;28;20954;-74
2021/10/29 05:21:53;;;;;;;54.33;37.10;;;8.80;1.00;10.40;100332.00;;;;5000095;28;20456;-75
2021/10/29 05:24:21;;;;;;;57.83;40.00;;;8.90;1.00;10.50;100339.00;;;;4999143;28;20576;-74
2021/10/29 05:26:50;;;;;;;57.97;38.03;;;8.90;1.00;10.50;100321.00;;;;4999993;28;20482;-75
2021/10/29 05:29:18;;;;;;;53.07;37.00;;;9.00;1.00;10.50;100325.00;;;;4988957;28;20459;-75
2021/10/29 05:31:48;;;;;;;58.40;38.60;;;9.00;1.00;10.50;100341.00;;;;4997397;28;20550;-75
2021/10/29 05:34:16;;;;;;;55.60;37.90;;;9.00;1.00;10.60;100340.00;;;;4998627;28;20458;-74
2021/10/29 05:36:44;;;;;;;53.27;38.00;;;9.00;1.00;10.60;100338.00;;;;4998474;28;20938;-75
2021/10/29 05:39:13;;;;;;;58.67;39.13;;;9.00;1.00;10.60;100307.00;;;;4999742;28;20442;-76
2021/10/29 05:41:47;;;;;;;53.90;36.77;;;9.10;1.00;10.60;100335.00;;;;4998173;28;20621;-79
2021/10/29 05:44:15;;;;;;;53.50;38.17;;;9.10;1.00;10.60;100337.00;;;;4998344;28;21441;-74
2021/10/29 05:46:44;;;;;;;57.77;39.23;;;9.10;1.00;10.60;100301.00;;;;4997064;28;20489;-76
2021/10/29 05:49:15;;;;;;;52.70;38.47;;;9.10;1.00;10.70;100332.00;;;;4995834;28;20454;-76
2021/10/29 05:51:46;;;;;;;53.77;36.83;;;9.10;1.00;10.70;100336.00;;;;4978372;28;20454;-74
2021/10/29 05:54:37;;;;;;;56.90;38.97;;;9.20;1.00;10.60;100336.00;;;;4994467;28;20454;-74
2021/10/29 05:57:07;;;;;;;55.13;40.70;;;9.20;1.00;10.60;100348.00;;;;4993265;28;20493;-75
2021/10/29 05:59:36;;;;;;;51.23;38.13;;;9.20;1.00;10.60;100333.00;;;;4997050;28;20511;-75
2021/10/29 06:02:05;;;;;;;52.93;37.70;;;9.20;1.00;10.60;100331.00;;;;4995173;28;20517;-75
2021/10/29 06:04:35;;;;;;;51.20;38.13;;;9.20;1.00;10.50;100335.00;;;;4977863;28;20469;-77
2021/10/29 06:07:04;;;;;;;51.83;37.80;;;9.20;1.00;10.50;100324.00;;;;4998609;28;20473;-75
2021/10/29 06:09:32;;;;;;;55.10;39.40;;;9.10;1.00;10.40;100339.00;;;;4986935;28;20471;-76
2021/10/29 06:12:01;;;;;;;55.30;38.87;;;9.10;1.00;10.40;100330.00;;;;4997995;28;20476;-76
2021/10/29 06:14:30;;;;;;;53.57;40.40;;;9.10;1.00;10.30;100333.00;;;;4997219;28;20464;-78
2021/10/29 06:16:58;;;;;;;53.63;40.57;;;9.10;1.00;10.30;100341.00;;;;4997919;28;20478;-76
2021/10/29 06:19:27;;;;;;;55.00;39.70;;;9.10;1.00;10.30;100359.00;;;;4997394;28;20549;-74
2021/10/29 06:22:00;;;;;;;51.73;40.03;;;9.10;1.00;10.40;100294.00;;;;4997886;28;20497;-75
2021/10/29 06:24:29;;;;;;;51.23;39.27;;;9.10;1.00;10.50;100332.00;;;;4997071;28;20822;-75
2021/10/29 06:27:01;;;;;;;56.47;39.40;;;9.20;1.00;10.60;100319.00;;;;4999131;28;20474;-76
2021/10/29 06:29:30;;;;;;;57.07;40.67;;;9.20;1.00;10.60;100306.00;;;;4998769;28;20482;-76
2021/10/29 06:31:58;;;;;;;54.53;38.03;;;9.20;1.00;10.40;100305.00;;;;4998288;28;20457;-75
2021/10/29 06:34:27;;;;;;;57.37;40.37;;;9.20;1.00;10.70;100330.00;;;;4985276;28;20442;-73
2021/10/29 06:36:57;;;;;;;51.80;39.00;;;9.30;1.00;10.70;100331.00;;;;4994836;28;20492;-74
2021/10/29 06:39:25;;;;;;;53.53;38.20;;;9.30;1.00;10.60;100346.00;;;;4994802;28;20454;-74
2021/10/29 06:41:58;;;;;;;49.27;36.90;;;9.30;1.00;10.60;100326.00;;;;4997606;28;20545;-76
2021/10/29 06:44:36;;;;;;;49.60;37.37;;;9.30;1.00;10.70;100306.00;;;;4986603;28;21081;-79
2021/10/29 07:01:00;;;;;;;51.97;40.87;;;9.40;1.00;10.90;100315.00;;;;4996923;28;20518;-75
2021/10/29 07:42:24;;;;;;;45.70;34.17;;;9.60;1.00;11.20;100344.00;;;;4985345;28;20465;-77
2021/10/29 07:44:53;;;;;;;39.90;31.77;;;9.70;1.00;11.20;100341.00;;;;4995856;28;20958;-74
2021/10/29 07:47:21;;;;;;;41.73;32.53;;;9.70;1.00;11.30;100341.00;;;;4991144;28;20580;-75
2021/10/29 07:49:50;;;;;;;41.40;32.40;;;9.80;1.00;11.00;100346.00;;;;4995723;28;20572;-77
2021/10/29 07:52:19;;;;;;;42.70;33.53;;;9.80;1.00;11.40;100345.00;;;;4994674;28;20465;-75
2021/10/29 07:54:47;;;;;;;40.50;32.30;;;9.90;1.00;11.40;100335.00;;;;4983513;28;20534;-74
2021/10/29 07:57:19;;;;;;;41.13;32.60;;;9.90;1.00;11.40;100344.00;;;;4986008;28;20574;-75
2021/10/29 07:59:51;;;;;;;41.93;33.90;;;9.90;1.00;11.50;100325.00;;;;4997309;28;20449;-74
2021/10/29 08:02:20;;;;;;;42.93;34.40;;;9.90;1.00;11.60;100321.00;;;;4995322;28;20458;-75
2021/10/29 08:04:49;;;;;;;43.03;32.93;;;9.90;1.00;11.60;100321.00;;;;4994301;28;20466;-74
2021/10/29 08:07:17;;;;;;;45.07;34.10;;;10.10;1.00;11.60;100337.00;;;;4993576;28;20465;-74
2021/10/29 08:09:46;;;;;;;43.67;32.73;;;10.00;1.00;11.70;100333.00;;;;4992861;28;20548;-74
2021/10/29 08:12:16;;;;;;;43.57;32.43;;;10.00;1.00;11.70;100355.00;;;;4994028;28;20450;-74
2021/10/29 08:14:46;;;;;;;42.43;33.03;;;10.00;1.00;11.70;100346.00;;;;4993447;28;20454;-74
2021/10/29 08:17:16;;;;;;;37.93;30.77;;;10.10;1.00;11.60;100311.00;;;;4993928;28;20477;-74
2021/10/29 08:19:45;;;;;;;39.87;29.97;;;10.10;1.00;11.70;100342.00;;;;4998735;28;20454;-75
2021/10/29 08:22:14;;;;;;;40.17;30.70;;;10.20;1.00;11.70;100337.00;;;;4999705;28;20446;-75
2021/10/29 08:24:44;;;;;;;37.40;29.27;;;10.30;1.00;11.80;100330.00;;;;4997313;28;20516;-76
2021/10/29 08:27:12;;;;;;;40.17;31.27;;;10.30;1.00;11.90;100335.00;;;;4988573;28;20590;-81
2021/10/29 08:29:41;;;;;;;39.40;32.17;;;10.30;1.00;11.80;100316.00;;;;5000974;28;21253;-79
2021/10/29 08:32:10;;;;;;;40.77;31.27;;;10.30;1.00;11.90;100338.00;;;;5013146;28;20462;-76
2021/10/29 08:34:40;;;;;;;39.93;31.50;;;10.40;1.00;11.90;100338.00;;;;5016948;28;20473;-75
2021/10/29 08:37:09;;;;;;;39.70;32.10;;;10.30;1.00;12.00;100321.00;;;;4997434;28;20488;-76
2021/10/29 08:39:38;;;;;;;39.53;29.87;;;10.40;1.00;12.00;100317.00;;;;4993916;28;20465;-75
2021/10/29 08:42:08;;;;;;;36.60;28.50;;;10.40;1.00;12.10;100316.00;;;;4990619;28;20458;-76
2021/10/29 08:44:38;;;;;;;37.03;28.30;;;10.40;1.00;12.20;100322.00;;;;5000408;28;20504;-75
2021/10/29 08:47:07;;;;;;;35.87;27.83;;;10.50;1.00;12.20;100303.00;;;;4999815;28;20477;-77
2021/10/29 08:49:36;;;;;;;33.97;26.80;;;10.60;1.00;12.30;100322.00;;;;4989635;28;20482;-77
2021/10/29 08:52:10;;;;;;;37.63;28.87;;;10.70;1.00;12.30;100317.00;;;;5000142;28;20453;-73
2021/10/29 08:54:38;;;;;;;31.23;26.10;;;10.70;1.00;12.30;100302.00;;;;4997916;28;20458;-74
2021/10/29 08:57:07;;;;;;;31.47;26.77;;;10.70;1.00;12.40;100312.00;;;;5001061;28;20506;-73
2021/10/29 08:59:40;;;;;;;31.30;27.57;;;10.80;1.00;12.50;100325.00;;;;5002758;28;20458;-75
2021/10/29 09:02:13;;;;;;;31.27;25.60;;;10.80;1.00;12.60;100322.00;;;;5002050;28;20453;-74
2021/10/29 09:04:48;;;;;;;31.43;26.30;;;10.90;1.00;12.70;100320.00;;;;5001123;28;20498;-77
2021/10/29 09:07:36;;;;;;;33.40;28.03;;;11.00;1.00;12.80;100307.00;;;;5000563;28;20488;-74
2021/10/29 09:10:26;;;;;;;37.67;28.90;;;11.00;1.00;12.80;100308.00;;;;5001963;28;20472;-75
2021/10/29 09:32:55;;;;;;;25.93;21.90;;;11.40;1.00;13.10;100284.00;;;;4993703;28;21138;-74
2021/10/29 09:35:26;;;;;;;25.80;21.20;;;11.50;1.00;13.20;100287.00;;;;5015445;28;20485;-77
2021/10/29 09:38:01;;;;;;;25.70;21.80;;;11.50;1.00;13.40;100254.00;;;;5027719;28;20464;-77
2021/10/29 09:41:01;;;;;;;25.97;21.40;;;11.60;1.00;13.60;100292.00;;;;5015499;28;21021;-77
2021/10/29 09:43:36;;;;;;;24.33;20.40;;;11.80;1.00;13.60;100288.00;;;;4994309;28;20451;-78
2021/10/29 09:46:06;;;;;;;24.97;20.10;;;11.90;1.00;13.60;100286.00;;;;5002455;28;20486;-76
2021/10/29 09:48:41;;;;;;;22.17;18.93;;;11.90;1.00;13.80;100267.00;;;;4984332;28;21620;-76
2021/10/29 09:51:21;;;;;;;21.80;19.50;;;12.10;1.00;13.90;100274.00;;;;5001202;28;20464;-76
2021/10/29 09:54:12;;;;;;;21.03;18.27;;;12.30;1.00;14.10;100270.00;;;;4988511;28;20465;-75
2021/10/29 09:57:00;;;;;;;20.60;18.40;;;12.50;1.00;14.40;100269.00;;;;4998819;28;20500;-77
2021/10/29 09:59:47;;;;;;;23.50;20.47;;;12.80;1.00;14.30;100247.00;;;;5001238;28;21074;-76
2021/10/29 10:02:30;;;;;;;23.17;20.77;;;12.90;1.00;14.30;100262.00;;;;4983953;28;20462;-75
2021/10/29 10:05:09;;;;;;;24.30;20.57;;;12.80;1.00;14.40;100235.00;;;;5003766;28;20528;-76
2021/10/29 10:07:50;;;;;;;23.93;19.90;;;12.80;1.00;14.40;100256.00;;;;4999177;28;20461;-76
2021/10/29 10:10:38;;;;;;;20.20;18.00;;;12.90;1.00;14.90;100256.00;;;;4986448;28;20478;-77
2021/10/29 10:13:26;;;;;;;22.93;19.20;;;13.20;1.00;15.00;100252.00;;;;4999820;28;20459;-76
2021/10/29 10:16:05;;;;;;;21.00;18.77;;;13.50;1.00;15.10;100254.00;;;;4989579;28;20481;-78
2021/10/29 10:19:00;;;;;;;21.83;19.53;;;13.50;1.00;15.30;100219.00;;;;4990662;28;20490;-76
2021/10/29 10:21:52;;;;;;;22.90;19.40;;;13.80;1.00;15.40;100253.00;;;;4993833;28;20462;-75
2021/10/29 10:24:57;;;;;;;20.77;17.90;;;14.00;1.00;15.40;100242.00;;;;5004184;28;20465;-76
2021/10/29 10:40:11;;;;;;;21.03;18.43;;;13.90;1.00;15.10;100241.00;;;;5147149;27;20564;-75
2021/10/29 10:47:35;;;;;;;23.77;19.83;;;14.00;1.00;15.50;100226.00;;;;5037623;28;20478;-75
2021/10/29 10:50:17;;;;;;;23.00;20.50;;;13.80;1.00;15.30;100224.00;;;;5031984;28;20490;-81
2021/10/29 10:53:40;;;;;;;21.80;19.60;;;13.80;1.00;15.30;100213.00;;;;5015596;28;20457;-81
2021/10/29 10:56:22;;;;;;;20.83;18.30;;;13.80;1.00;15.50;100201.00;;;;5025612;28;20454;-81
2021/10/29 10:59:11;;;;;;;23.10;19.07;;;13.90;1.00;15.50;100182.00;;;;5004907;28;20482;-82
2021/10/29 11:04:42;;;;;;;21.30;19.00;;;14.20;1.00;15.40;100177.00;;;;4994745;28;20451;-81
2021/10/29 11:07:27;;;;;;;21.97;19.43;;;14.20;1.00;15.50;100171.00;;;;4989382;28;20467;-80
2021/10/29 11:10:04;;;;;;;21.57;19.33;;;14.30;1.00;15.60;100163.00;;;;4991322;28;20482;-82
2021/10/29 11:13:09;;;;;;;22.17;18.80;;;14.40;1.00;15.60;100159.00;;;;4990756;28;20534;-81
2021/10/29 11:16:01;;;;;;;21.27;18.20;;;14.50;1.00;15.70;100155.00;;;;4990121;28;20459;-80
2021/10/29 11:18:34;;;;;;;23.67;18.40;;;14.40;1.00;15.80;100161.00;;;;4994420;28;20699;-79
2021/10/29 11:21:11;;;;;;;21.33;19.03;;;14.50;1.00;16.10;100178.00;;;;4991851;28;20451;-79
2021/10/29 11:23:52;;;;;;;21.03;18.20;;;14.70;1.00;16.30;100150.00;;;;5007691;28;20522;-79
2021/10/29 11:26:32;;;;;;;21.60;19.40;;;14.90;1.00;16.50;100163.00;;;;4992653;28;20459;-80
2021/10/29 11:29:03;;;;;;;21.13;18.00;;;15.10;1.00;16.70;100173.00;;;;4979778;28;20565;-79
2021/10/29 11:31:34;;;;;;;19.33;17.20;;;15.30;1.00;16.80;100153.00;;;;4990356;28;20461;-78
2021/10/29 11:34:06;;;;;;;19.83;17.83;;;15.50;1.00;16.70;100156.00;;;;4992447;28;20467;-79
2021/10/29 11:36:38;;;;;;;19.80;17.70;;;15.40;1.00;16.60;100149.00;;;;5009220;28;20515;-78
2021/10/29 11:39:11;;;;;;;19.50;17.60;;;15.30;1.00;16.50;100158.00;;;;4994935;28;20491;-76
2021/10/29 11:41:42;;;;;;;20.37;17.00;;;15.30;1.00;16.50;100147.00;;;;4984934;28;20459;-77
2021/10/29 11:44:14;;;;;;;21.40;18.13;;;15.30;1.00;16.60;100137.00;;;;4988714;28;20482;-78
2021/10/29 11:46:45;;;;;;;22.20;17.67;;;15.40;1.00;16.80;100147.00;;;;4975002;28;20452;-78
2021/10/29 11:49:17;;;;;;;21.03;17.10;;;15.50;1.00;17.00;100133.00;;;;5006618;28;20489;-78
2021/10/29 11:51:46;;;;;;;19.47;17.47;;;15.80;1.00;17.10;100106.00;;;;5012721;28;20528;-78
2021/10/29 11:54:23;;;;;;;18.90;16.90;;;15.90;1.00;17.10;100132.00;;;;5011626;28;20454;-79
2021/10/29 11:57:06;;;;;;;18.47;15.80;;;15.90;1.00;17.10;100137.00;;;;5015923;28;20493;-80
2021/10/29 12:08:11;;;;;;;18.07;15.70;;;16.10;1.00;17.30;100105.00;;;;5013122;28;20497;-81
2021/10/29 12:10:44;;;;;;;21.00;16.53;;;16.10;1.00;17.20;100122.00;;;;5034546;28;20474;-80
2021/10/29 12:13:12;;;;;;;19.23;17.10;;;15.90;1.00;17.10;100113.00;;;;5025088;28;20458;-80
2021/10/29 12:15:41;;;;;;;18.33;15.40;;;15.80;1.00;17.10;100101.00;;;;5032475;28;20496;-79
2021/10/29 12:18:10;;;;;;;18.00;16.10;;;15.90;1.00;17.10;100042.00;;;;5031384;28;20516;-79
2021/10/29 12:20:45;;;;;;;17.50;15.10;;;15.90;1.00;17.10;100098.00;;;;5026509;28;20453;-79
2021/10/29 12:23:21;;;;;;;13.83;12.47;;;15.90;1.00;17.20;100078.00;;;;5043775;28;20478;-79
2021/10/29 12:26:00;;;;;;;15.00;12.70;;;16.00;1.00;17.40;100036.00;;;;5019035;28;20449;-80
2021/10/29 12:28:29;;;;;;;13.57;12.17;;;16.00;1.00;17.30;100073.00;;;;5018798;28;20480;-81
2021/10/29 12:31:05;;;;;;;15.03;13.17;;;15.90;1.00;17.40;100015.00;;;;5014510;28;20474;-80
2021/10/29 12:34:07;;;;;;;13.23;11.93;;;15.90;1.00;17.50;100069.00;;;;5035228;28;20451;-80
2021/10/29 12:37:16;;;;;;;13.30;12.00;;;16.00;1.00;17.60;100069.00;;;;5019790;28;20441;-79
2021/10/29 12:54:08;;;;;;;12.50;11.23;;;16.30;1.00;17.80;100054.00;;;;5011525;28;20820;-80
2021/10/29 13:02:24;;;;;;;13.40;11.97;;;16.50;1.00;17.70;100040.00;;;;5015797;28;20472;-80
2021/10/29 13:04:56;;;;;;;13.03;10.97;;;16.30;1.00;17.60;100010.00;;;;5013450;28;20552;-81
2021/10/29 13:07:26;;;;;;;12.63;11.40;;;16.30;1.00;17.50;100037.00;;;;5023293;28;20829;-80
2021/10/29 13:10:07;;;;;;;12.33;10.97;;;16.10;1.00;17.40;100020.00;;;;5034485;28;20580;-79